createdAt,value
2018-09-22T00:00:12.413Z,67.00
2018-09-22T00:01:16.886Z,67.10
2018-09-22T00:02:21.083Z,67.00
2018-09-22T00:03:25.212Z,67.00
2018-09-22T00:04:29.375Z,66.90
2018-09-22T00:05:33.634Z,66.70
2018-09-22T00:06:37.710Z,66.70
2018-09-22T00:07:41.774Z,66.70
2018-09-22T00:08:45.851Z,66.70
2018-09-22T00:09:50.080Z,66.80
2018-09-22T00:10:54.192Z,66.70
2018-09-22T00:11:58.364Z,66.70
2018-09-22T00:13:02.521Z,66.70
2018-09-22T00:14:06.775Z,66.70
2018-09-22T00:15:10.920Z,66.70
2018-09-22T00:16:14.997Z,67.00
2018-09-22T00:17:19.109Z,66.80
2018-09-22T00:18:23.233Z,66.90
2018-09-22T00:19:27.340Z,67.00
2018-09-22T00:21:41.650Z,66.90
2018-09-22T00:22:45.767Z,66.80
2018-09-22T00:23:49.929Z,67.00
2018-09-22T00:24:54.058Z,66.90
2018-09-22T00:25:58.193Z,66.80
2018-09-22T00:27:02.242Z,66.80
2018-09-22T00:28:06.560Z,66.90
2018-09-22T00:29:11.203Z,67.00
2018-09-22T00:30:15.245Z,67.00
2018-09-22T00:31:19.713Z,67.10
2018-09-22T00:32:23.800Z,67.30
2018-09-22T00:33:28.017Z,67.20
2018-09-22T00:34:32.126Z,67.40
2018-09-22T00:35:36.204Z,67.70
2018-09-22T00:36:40.256Z,67.70
2018-09-22T00:37:44.639Z,67.50
2018-09-22T00:38:48.721Z,67.80
2018-09-22T00:39:52.733Z,68.00
2018-09-22T00:40:57.115Z,68.10
2018-09-22T00:42:01.289Z,68.00
2018-09-22T00:43:05.856Z,68.00
2018-09-22T00:44:10.278Z,68.00
2018-09-22T00:45:14.358Z,67.80
2018-09-22T00:46:18.440Z,67.80
2018-09-22T00:47:22.574Z,68.10
2018-09-22T00:48:26.685Z,67.80
2018-09-22T00:49:31.190Z,68.00
2018-09-22T00:50:35.267Z,68.00
2018-09-22T00:51:39.355Z,68.10
2018-09-22T00:52:43.460Z,67.90
2018-09-22T00:53:47.618Z,67.80
2018-09-22T00:54:51.731Z,67.80
2018-09-22T00:55:55.894Z,68.00
2018-09-22T00:57:00.058Z,67.80
2018-09-22T00:58:04.085Z,67.90
2018-09-22T00:59:08.253Z,67.80
2018-09-22T01:00:12.418Z,67.70
2018-09-22T01:01:16.470Z,67.70
2018-09-22T01:02:20.604Z,67.70
2018-09-22T01:03:24.720Z,67.70
2018-09-22T01:04:28.862Z,67.80
2018-09-22T01:05:33.131Z,67.80
2018-09-22T01:06:37.750Z,67.90
2018-09-22T01:07:42.357Z,67.80
2018-09-22T01:08:46.654Z,67.80
2018-09-22T01:09:50.737Z,68.20
2018-09-22T01:11:00.876Z,68.00
2018-09-22T01:12:05.009Z,68.00
2018-09-22T01:13:09.185Z,68.00
2018-09-22T01:14:13.394Z,67.90
2018-09-22T01:15:17.492Z,68.10
2018-09-22T01:16:21.744Z,68.40
2018-09-22T01:17:25.837Z,68.00
2018-09-22T01:18:30.066Z,68.40
2018-09-22T01:19:34.093Z,68.20
2018-09-22T01:20:38.177Z,68.10
2018-09-22T01:21:42.389Z,68.20
2018-09-22T01:22:46.494Z,68.40
2018-09-22T01:23:50.973Z,68.20
2018-09-22T01:24:55.183Z,68.10
2018-09-22T01:25:59.652Z,68.00
2018-09-22T01:27:10.272Z,68.00
2018-09-22T01:28:14.368Z,68.10
2018-09-22T01:29:18.480Z,67.80
2018-09-22T01:30:22.570Z,67.80
2018-09-22T01:31:26.663Z,67.80
2018-09-22T01:32:30.816Z,67.70
2018-09-22T01:33:34.914Z,67.80
2018-09-22T01:34:39.039Z,67.80
2018-09-22T01:35:43.046Z,67.70
2018-09-22T01:36:47.233Z,67.60
2018-09-22T01:37:51.355Z,67.60
2018-09-22T01:38:55.381Z,67.80
2018-09-22T01:39:59.714Z,67.70
2018-09-22T01:41:03.774Z,67.70
2018-09-22T01:42:07.897Z,67.70
2018-09-22T01:43:12.100Z,67.40
2018-09-22T01:44:16.250Z,67.30
2018-09-22T01:45:20.404Z,67.30
2018-09-22T01:46:24.510Z,67.30
2018-09-22T01:47:28.616Z,67.30
2018-09-22T01:48:32.879Z,67.30
2018-09-22T01:49:37.266Z,67.40
2018-09-22T01:50:41.475Z,67.10
2018-09-22T01:51:45.539Z,67.00
2018-09-22T01:52:49.628Z,66.80
2018-09-22T01:53:53.737Z,66.70
2018-09-22T01:54:57.821Z,66.70
2018-09-22T01:56:01.954Z,66.50
2018-09-22T01:57:06.019Z,66.40
2018-09-22T01:58:10.124Z,66.40
2018-09-22T01:59:14.290Z,66.20
2018-09-22T02:00:18.355Z,66.10
2018-09-22T02:01:22.477Z,66.10
2018-09-22T02:02:26.623Z,65.90
2018-09-22T02:03:30.749Z,65.90
2018-09-22T02:04:34.969Z,66.50
2018-09-22T02:05:39.055Z,65.60
2018-09-22T02:06:43.180Z,65.60
2018-09-22T02:07:47.232Z,65.70
2018-09-22T02:08:51.360Z,65.50
2018-09-22T02:09:55.612Z,65.40
2018-09-22T02:10:59.803Z,65.40
2018-09-22T02:12:03.928Z,66.10
2018-09-22T02:13:08.154Z,65.30
2018-09-22T02:14:12.533Z,65.30
2018-09-22T02:15:16.612Z,65.30
2018-09-22T02:16:20.729Z,65.20
2018-09-22T02:17:24.840Z,65.20
2018-09-22T02:18:29.017Z,65.10
2018-09-22T02:19:33.185Z,65.80
2018-09-22T02:20:37.235Z,64.90
2018-09-22T02:21:41.346Z,64.70
2018-09-22T02:22:45.534Z,64.70
2018-09-22T02:23:49.592Z,64.60
2018-09-22T02:24:53.756Z,64.40
2018-09-22T02:25:58.079Z,64.30
2018-09-22T02:27:02.706Z,64.30
2018-09-22T02:28:07.023Z,64.30
2018-09-22T02:29:11.200Z,64.10
2018-09-22T02:30:15.629Z,64.10
2018-09-22T02:31:19.819Z,64.00
2018-09-22T02:32:24.353Z,64.00
2018-09-22T02:33:28.414Z,64.00
2018-09-22T02:34:32.550Z,64.00
2018-09-22T02:35:36.709Z,64.00
2018-09-22T02:36:40.864Z,64.00
2018-09-22T02:37:44.972Z,64.80
2018-09-22T02:38:49.214Z,63.90
2018-09-22T02:39:53.365Z,64.70
2018-09-22T02:40:57.447Z,63.90
2018-09-22T02:42:01.639Z,63.90
2018-09-22T02:43:05.700Z,64.00
2018-09-22T02:44:09.810Z,64.00
2018-09-22T02:45:13.981Z,64.10
2018-09-22T02:46:18.177Z,64.10
2018-09-22T02:47:22.315Z,64.00
2018-09-22T02:48:26.477Z,64.00
2018-09-22T02:49:30.548Z,64.10
2018-09-22T02:50:34.674Z,64.10
2018-09-22T02:51:38.718Z,64.20
2018-09-22T02:52:42.793Z,64.10
2018-09-22T02:53:46.912Z,64.10
2018-09-22T02:54:50.972Z,64.20
2018-09-22T02:55:55.110Z,64.40
2018-09-22T02:56:59.485Z,64.30
2018-09-22T02:58:03.440Z,64.40
2018-09-22T02:59:07.711Z,64.50
2018-09-22T03:00:11.880Z,64.40
2018-09-22T03:01:15.935Z,64.40
2018-09-22T03:02:20.368Z,64.60
2018-09-22T03:03:24.440Z,64.60
2018-09-22T03:04:28.545Z,64.70
2018-09-22T03:05:32.582Z,64.60
2018-09-22T03:06:36.783Z,64.60
2018-09-22T03:07:40.808Z,64.60
2018-09-22T03:08:44.927Z,64.70
2018-09-22T03:09:49.067Z,64.60
2018-09-22T03:10:53.140Z,64.70
2018-09-22T03:11:57.174Z,64.80
2018-09-22T03:13:01.251Z,64.90
2018-09-22T03:14:05.299Z,65.60
2018-09-22T03:15:09.357Z,65.00
2018-09-22T03:16:13.486Z,64.90
2018-09-22T03:17:17.558Z,65.10
2018-09-22T03:18:21.664Z,65.10
2018-09-22T03:19:25.732Z,64.90
2018-09-22T03:20:29.820Z,65.10
2018-09-22T03:21:33.896Z,65.10
2018-09-22T03:22:38.056Z,65.00
2018-09-22T03:23:43.202Z,65.00
2018-09-22T03:24:47.390Z,65.00
2018-09-22T03:25:51.590Z,65.00
2018-09-22T03:26:55.729Z,65.70
2018-09-22T03:27:59.856Z,65.10
2018-09-22T03:29:03.972Z,65.00
2018-09-22T03:30:08.456Z,65.00
2018-09-22T03:31:12.647Z,65.00
2018-09-22T03:32:16.918Z,65.10
2018-09-22T03:33:21.066Z,65.00
2018-09-22T03:34:25.185Z,64.90
2018-09-22T03:35:29.298Z,65.00
2018-09-22T03:36:33.374Z,65.70
2018-09-22T03:37:37.492Z,65.00
2018-09-22T03:38:41.570Z,65.10
2018-09-22T03:39:46.063Z,65.10
2018-09-22T03:40:50.195Z,65.10
2018-09-22T03:41:54.348Z,65.10
2018-09-22T03:42:58.433Z,65.10
2018-09-22T03:44:02.626Z,65.20
2018-09-22T03:45:06.780Z,65.10
2018-09-22T03:46:10.880Z,65.20
2018-09-22T03:47:14.981Z,65.30
2018-09-22T03:48:19.137Z,65.30
2018-09-22T03:49:23.154Z,66.10
2018-09-22T03:50:27.295Z,65.30
2018-09-22T03:51:31.469Z,65.30
2018-09-22T03:52:35.535Z,65.30
2018-09-22T03:53:39.622Z,65.40
2018-09-22T03:54:44.538Z,65.40
2018-09-22T03:55:48.616Z,65.70
2018-09-22T03:56:52.769Z,65.70
2018-09-22T03:57:56.876Z,65.60
2018-09-22T03:59:01.076Z,65.60
2018-09-22T04:00:05.478Z,65.80
2018-09-22T04:01:10.361Z,65.80
2018-09-22T04:02:14.727Z,65.80
2018-09-22T04:03:18.886Z,65.80
2018-09-22T04:04:23.226Z,65.80
2018-09-22T04:05:27.666Z,65.80
2018-09-22T04:06:32.118Z,66.20
2018-09-22T04:07:36.491Z,66.30
2018-09-22T04:08:40.532Z,66.20
2018-09-22T04:09:45.010Z,66.20
2018-09-22T04:10:49.194Z,66.20
2018-09-22T04:11:53.203Z,66.40
2018-09-22T04:12:57.284Z,66.30
2018-09-22T04:14:01.388Z,66.60
2018-09-22T04:15:05.677Z,66.50
2018-09-22T04:16:10.032Z,66.40
2018-09-22T04:17:14.233Z,66.70
2018-09-22T04:18:18.640Z,66.60
2018-09-22T04:19:22.748Z,66.50
2018-09-22T04:20:27.155Z,66.80
2018-09-22T04:21:31.223Z,66.70
2018-09-22T04:22:35.350Z,66.90
2018-09-22T04:23:39.812Z,66.80
2018-09-22T04:24:44.331Z,66.80
2018-09-22T04:25:48.683Z,66.60
2018-09-22T04:26:52.752Z,66.60
2018-09-22T04:27:56.881Z,66.80
2018-09-22T04:29:01.094Z,66.80
2018-09-22T04:30:05.386Z,66.80
2018-09-22T04:31:09.500Z,66.90
2018-09-22T04:32:13.654Z,66.80
2018-09-22T04:33:17.823Z,66.90
2018-09-22T04:34:21.883Z,66.80
2018-09-22T04:35:25.986Z,66.80
2018-09-22T04:36:30.052Z,66.90
2018-09-22T04:37:34.475Z,66.80
2018-09-22T04:38:38.905Z,66.80
2018-09-22T04:39:42.988Z,66.80
2018-09-22T04:40:47.084Z,66.80
2018-09-22T04:41:51.204Z,66.70
2018-09-22T04:42:55.275Z,66.90
2018-09-22T04:43:59.334Z,66.80
2018-09-22T04:45:03.448Z,66.80
2018-09-22T04:46:07.572Z,66.80
2018-09-22T04:47:11.611Z,66.70
2018-09-22T04:48:16.061Z,67.50
2018-09-22T04:49:20.389Z,66.70
2018-09-22T04:50:24.830Z,66.60
2018-09-22T04:51:29.791Z,66.50
2018-09-22T04:52:33.868Z,66.60
2018-09-22T04:53:37.958Z,66.60
2018-09-22T04:54:42.134Z,66.50
2018-09-22T04:55:46.242Z,66.50
2018-09-22T04:56:50.290Z,66.50
2018-09-22T04:57:54.426Z,66.60
2018-09-22T04:58:58.465Z,66.50
2018-09-22T05:00:02.522Z,66.70
2018-09-22T05:01:06.745Z,66.60
2018-09-22T05:02:10.857Z,66.60
2018-09-22T05:03:15.066Z,66.70
2018-09-22T05:04:19.150Z,66.60
2018-09-22T05:05:23.250Z,66.60
2018-09-22T05:06:27.372Z,66.60
2018-09-22T05:07:31.533Z,66.60
2018-09-22T05:08:35.771Z,66.70
2018-09-22T05:09:39.917Z,66.60
2018-09-22T05:10:44.263Z,66.60
2018-09-22T05:11:48.660Z,66.80
2018-09-22T05:12:52.760Z,66.90
2018-09-22T05:13:56.916Z,66.70
2018-09-22T05:15:00.961Z,66.90
2018-09-22T05:16:05.058Z,67.00
2018-09-22T05:17:09.227Z,67.20
2018-09-22T05:18:13.328Z,67.30
2018-09-22T05:19:17.460Z,67.40
2018-09-22T05:20:21.616Z,67.30
2018-09-22T05:21:25.696Z,67.50
2018-09-22T05:22:29.794Z,67.50
2018-09-22T05:23:33.970Z,67.40
2018-09-22T05:24:38.071Z,67.60
2018-09-22T05:25:42.234Z,67.50
2018-09-22T05:26:46.356Z,67.80
2018-09-22T05:27:57.151Z,67.60
2018-09-22T05:29:01.223Z,67.60
2018-09-22T05:30:05.532Z,67.60
2018-09-22T05:31:09.647Z,68.50
2018-09-22T05:32:13.791Z,67.70
2018-09-22T05:33:17.856Z,67.60
2018-09-22T05:34:22.014Z,67.80
2018-09-22T05:35:26.137Z,67.90
2018-09-22T05:36:30.160Z,67.90
2018-09-22T05:37:34.577Z,67.90
2018-09-22T05:38:38.933Z,67.80
2018-09-22T05:39:43.158Z,67.70
2018-09-22T05:40:47.182Z,67.90
2018-09-22T05:41:51.769Z,67.90
2018-09-22T05:42:56.208Z,67.80
2018-09-22T05:44:00.710Z,67.90
2018-09-22T05:45:05.618Z,67.80
2018-09-22T05:46:09.854Z,68.00
2018-09-22T05:47:13.944Z,68.00
2018-09-22T05:48:18.088Z,68.00
2018-09-22T05:49:22.202Z,68.00
2018-09-22T05:50:26.379Z,67.90
2018-09-22T05:51:30.556Z,68.00
2018-09-22T05:52:34.660Z,68.20
2018-09-22T05:53:38.956Z,68.10
2018-09-22T05:54:43.079Z,68.00
2018-09-22T05:55:47.266Z,68.20
2018-09-22T05:56:51.766Z,68.60
2018-09-22T05:57:56.058Z,68.50
2018-09-22T05:59:00.127Z,68.50
2018-09-22T06:00:04.217Z,68.40
2018-09-22T06:01:08.379Z,68.30
2018-09-22T06:02:12.946Z,68.40
2018-09-22T06:03:17.108Z,68.60
2018-09-22T06:04:21.279Z,68.40
2018-09-22T06:05:25.322Z,68.40
2018-09-22T06:06:29.418Z,68.50
2018-09-22T06:07:33.606Z,68.30
2018-09-22T06:08:37.760Z,68.30
2018-09-22T06:09:42.037Z,68.50
2018-09-22T06:10:46.109Z,69.10
2018-09-22T06:11:50.162Z,68.40
2018-09-22T06:12:54.281Z,68.50
2018-09-22T06:13:58.376Z,68.30
2018-09-22T06:15:02.821Z,68.20
2018-09-22T06:16:07.615Z,68.30
2018-09-22T06:17:11.666Z,68.30
2018-09-22T06:18:15.866Z,68.40
2018-09-22T06:19:19.988Z,68.20
2018-09-22T06:20:24.173Z,68.20
2018-09-22T06:21:28.334Z,68.30
2018-09-22T06:22:32.391Z,68.30
2018-09-22T06:23:36.659Z,68.30
2018-09-22T06:24:41.033Z,68.40
2018-09-22T06:25:45.268Z,68.50
2018-09-22T06:26:49.878Z,68.20
2018-09-22T06:27:54.888Z,68.20
2018-09-22T06:28:59.001Z,68.20
2018-09-22T06:30:03.192Z,68.70
2018-09-22T06:31:07.303Z,68.30
2018-09-22T06:32:11.382Z,68.30
2018-09-22T06:33:15.487Z,68.20
2018-09-22T06:34:19.728Z,68.30
2018-09-22T06:35:24.110Z,68.30
2018-09-22T06:36:28.250Z,68.50
2018-09-22T06:37:32.453Z,68.30
2018-09-22T06:38:36.460Z,68.20
2018-09-22T06:39:40.550Z,68.20
2018-09-22T06:40:44.768Z,68.30
2018-09-22T06:41:48.908Z,68.20
2018-09-22T06:42:53.222Z,68.90
2018-09-22T06:43:57.309Z,68.00
2018-09-22T06:45:01.574Z,68.20
2018-09-22T06:46:05.744Z,68.10
2018-09-22T06:47:09.969Z,68.10
2018-09-22T06:48:14.666Z,68.00
2018-09-22T06:49:19.086Z,68.00
2018-09-22T06:50:23.168Z,68.10
2018-09-22T06:51:27.505Z,68.90
2018-09-22T06:52:31.628Z,68.20
2018-09-22T06:53:35.813Z,68.10
2018-09-22T06:54:39.982Z,68.10
2018-09-22T06:55:44.128Z,68.00
2018-09-22T06:56:48.310Z,68.00
2018-09-22T06:57:52.407Z,67.70
2018-09-22T06:58:56.634Z,67.50
2018-09-22T07:00:00.934Z,67.40
2018-09-22T07:01:05.298Z,67.40
2018-09-22T07:02:09.642Z,67.30
2018-09-22T07:03:13.769Z,67.10
2018-09-22T07:04:18.077Z,66.90
2018-09-22T07:05:22.468Z,66.80
2018-09-22T07:06:26.786Z,66.70
2018-09-22T07:07:30.977Z,66.70
2018-09-22T07:08:35.080Z,66.50
2018-09-22T07:09:39.294Z,66.40
2018-09-22T07:10:43.495Z,66.40
2018-09-22T07:11:47.581Z,66.30
2018-09-22T07:12:51.684Z,66.10
2018-09-22T07:13:55.738Z,66.10
2018-09-22T07:14:59.900Z,66.10
2018-09-22T07:16:04.100Z,66.10
2018-09-22T07:17:08.172Z,66.10
2018-09-22T07:18:12.435Z,66.30
2018-09-22T07:19:16.857Z,66.20
2018-09-22T07:20:21.100Z,66.10
2018-09-22T07:21:30.590Z,66.10
2018-09-22T07:22:40.360Z,66.00
2018-09-22T07:23:44.920Z,65.70
2018-09-22T07:24:48.982Z,65.60
2018-09-22T07:25:53.096Z,65.50
2018-09-22T07:26:57.190Z,65.50
2018-09-22T07:28:01.748Z,65.60
2018-09-22T07:29:05.827Z,65.50
2018-09-22T07:30:10.052Z,65.30
2018-09-22T07:31:14.208Z,65.00
2018-09-22T07:32:18.365Z,65.00
2018-09-22T07:33:22.584Z,64.90
2018-09-22T07:34:26.872Z,64.90
2018-09-22T07:35:30.976Z,64.90
2018-09-22T07:36:35.520Z,64.60
2018-09-22T07:37:39.845Z,64.40
2018-09-22T07:38:44.224Z,64.20
2018-09-22T07:39:48.401Z,63.50
2018-09-22T07:40:52.512Z,63.50
2018-09-22T07:41:56.644Z,63.50
2018-09-22T07:43:00.830Z,63.60
2018-09-22T07:44:05.059Z,63.20
2018-09-22T07:45:09.326Z,63.10
2018-09-22T07:46:14.082Z,62.90
2018-09-22T07:47:18.301Z,62.70
2018-09-22T07:48:22.693Z,63.30
2018-09-22T07:49:27.042Z,61.80
2018-09-22T07:50:31.170Z,61.70
2018-09-22T07:51:35.300Z,61.60
2018-09-22T07:52:39.440Z,61.60
2018-09-22T07:53:43.820Z,60.90
2018-09-22T07:54:48.009Z,60.60
2018-09-22T07:55:52.169Z,60.00
2018-09-22T07:56:56.276Z,59.80
2018-09-22T07:58:00.382Z,60.10
2018-09-22T07:59:04.615Z,60.60
2018-09-22T08:00:08.724Z,59.90
2018-09-22T08:01:12.957Z,59.10
2018-09-22T08:02:17.094Z,59.20
2018-09-22T08:03:21.270Z,59.20
2018-09-22T08:04:25.452Z,58.80
2018-09-22T08:05:29.603Z,58.80
2018-09-22T08:06:33.802Z,58.70
2018-09-22T08:07:38.038Z,58.70
2018-09-22T08:08:42.308Z,58.70
2018-09-22T08:09:47.144Z,58.80
2018-09-22T08:10:51.440Z,59.00
2018-09-22T08:11:55.886Z,59.10
2018-09-22T08:13:00.004Z,59.00
2018-09-22T08:14:04.159Z,59.00
2018-09-22T08:15:08.341Z,58.90
2018-09-22T08:16:12.507Z,58.70
2018-09-22T08:17:16.724Z,58.50
2018-09-22T08:18:20.839Z,57.40
2018-09-22T08:19:25.211Z,57.50
2018-09-22T08:20:29.421Z,57.20
2018-09-22T08:21:33.451Z,57.00
2018-09-22T08:22:37.556Z,57.00
2018-09-22T08:23:41.773Z,56.60
2018-09-22T08:24:45.823Z,56.40
2018-09-22T08:25:49.976Z,56.10
2018-09-22T08:26:54.138Z,55.00
2018-09-22T08:27:58.267Z,55.20
2018-09-22T08:29:02.360Z,55.10
2018-09-22T08:30:07.346Z,55.00
2018-09-22T08:31:11.609Z,55.00
2018-09-22T08:32:15.842Z,55.00
2018-09-22T08:33:20.404Z,54.70
2018-09-22T08:34:24.644Z,54.70
2018-09-22T08:35:28.698Z,54.40
2018-09-22T08:36:33.115Z,54.20
2018-09-22T08:37:37.022Z,53.70
2018-09-22T08:38:41.142Z,53.60
2018-09-22T08:39:45.892Z,52.70
2018-09-22T08:40:50.084Z,52.90
2018-09-22T08:41:54.405Z,52.80
2018-09-22T08:42:58.747Z,52.70
2018-09-22T08:44:03.050Z,52.20
2018-09-22T08:45:07.446Z,52.30
2018-09-22T08:46:11.658Z,52.00
2018-09-22T08:47:15.760Z,52.20
2018-09-22T08:48:21.530Z,52.20
2018-09-22T08:49:25.841Z,52.10
2018-09-22T08:50:29.895Z,51.60
2018-09-22T08:51:34.546Z,51.60
2018-09-22T08:52:38.773Z,51.70
2018-09-22T08:53:42.877Z,51.70
2018-09-22T08:54:47.088Z,51.70
2018-09-22T08:55:51.368Z,51.80
2018-09-22T08:56:55.715Z,51.90
2018-09-22T08:57:59.932Z,51.90
2018-09-22T08:59:04.056Z,51.90
2018-09-22T09:00:08.383Z,52.00
2018-09-22T09:01:12.599Z,51.70
2018-09-22T09:02:16.757Z,51.80
2018-09-22T09:03:20.807Z,51.50
2018-09-22T09:04:24.976Z,51.40
2018-09-22T09:05:29.640Z,51.90
2018-09-22T09:06:33.697Z,50.90
2018-09-22T09:07:37.944Z,51.00
2018-09-22T09:08:42.338Z,50.90
2018-09-22T09:09:47.028Z,50.20
2018-09-22T09:10:51.231Z,50.60
2018-09-22T09:11:55.427Z,50.60
2018-09-22T09:12:59.679Z,50.80
2018-09-22T09:14:03.950Z,50.70
2018-09-22T09:15:08.069Z,50.60
2018-09-22T09:16:12.491Z,50.60
2018-09-22T09:17:16.915Z,50.20
2018-09-22T09:18:21.138Z,49.90
2018-09-22T09:19:25.390Z,49.90
2018-09-22T09:20:29.977Z,49.70
2018-09-22T09:21:34.186Z,49.80
2018-09-22T09:22:38.263Z,49.80
2018-09-22T09:23:43.218Z,49.90
2018-09-22T09:24:47.351Z,49.60
2018-09-22T09:25:51.621Z,49.30
2018-09-22T09:26:55.776Z,49.30
2018-09-22T09:28:00.058Z,48.50
2018-09-22T09:29:04.369Z,48.40
2018-09-22T09:30:08.810Z,49.00
2018-09-22T09:31:12.936Z,48.00
2018-09-22T09:32:17.626Z,48.20
2018-09-22T09:33:21.778Z,47.80
2018-09-22T09:34:26.026Z,48.00
2018-09-22T09:35:30.204Z,47.90
2018-09-22T09:36:34.656Z,47.80
2018-09-22T09:37:38.875Z,47.50
2018-09-22T09:38:42.948Z,47.40
2018-09-22T09:39:47.654Z,47.30
2018-09-22T09:40:52.243Z,46.70
2018-09-22T09:41:56.422Z,47.00
2018-09-22T09:43:00.831Z,46.70
2018-09-22T09:44:04.949Z,46.50
2018-09-22T09:45:09.357Z,46.60
2018-09-22T09:46:13.702Z,46.40
2018-09-22T09:47:17.926Z,46.30
2018-09-22T09:48:22.079Z,46.70
2018-09-22T09:49:26.194Z,46.20
2018-09-22T09:50:30.425Z,46.30
2018-09-22T09:51:34.654Z,46.10
2018-09-22T09:52:39.209Z,45.70
2018-09-22T09:53:43.375Z,45.60
2018-09-22T09:54:47.532Z,45.60
2018-09-22T09:55:51.734Z,45.50
2018-09-22T09:56:55.904Z,45.10
2018-09-22T09:58:00.392Z,44.90
2018-09-22T09:59:04.809Z,44.70
2018-09-22T10:00:09.132Z,44.70
2018-09-22T10:01:13.334Z,44.70
2018-09-22T10:02:17.414Z,44.60
2018-09-22T10:03:21.895Z,44.70
2018-09-22T10:04:26.333Z,44.60
2018-09-22T10:05:30.635Z,44.50
2018-09-22T10:06:34.950Z,44.40
2018-09-22T10:07:39.278Z,44.40
2018-09-22T10:08:43.416Z,44.10
2018-09-22T10:09:48.053Z,44.20
2018-09-22T10:10:52.197Z,43.70
2018-09-22T10:11:56.437Z,43.40
2018-09-22T10:13:01.070Z,43.20
2018-09-22T10:14:05.483Z,43.20
2018-09-22T10:15:09.572Z,43.20
2018-09-22T10:16:14.163Z,42.70
2018-09-22T10:17:18.257Z,42.60
2018-09-22T10:18:23.558Z,42.70
2018-09-22T10:19:27.583Z,41.70
2018-09-22T10:20:31.986Z,42.20
2018-09-22T10:21:36.154Z,42.30
2018-09-22T10:22:40.305Z,42.70
2018-09-22T10:23:44.478Z,42.80
2018-09-22T10:24:48.723Z,42.60
2018-09-22T10:25:52.943Z,43.00
2018-09-22T10:26:57.054Z,43.20
2018-09-22T10:28:01.425Z,43.40
2018-09-22T10:29:05.562Z,43.40
2018-09-22T10:30:09.981Z,43.30
2018-09-22T10:31:14.146Z,43.50
2018-09-22T10:32:18.335Z,43.60
2018-09-22T10:33:22.605Z,43.90
2018-09-22T10:34:26.798Z,44.00
2018-09-22T10:35:30.982Z,44.20
2018-09-22T10:36:35.051Z,44.20
2018-09-22T10:37:39.119Z,44.20
2018-09-22T10:38:43.300Z,44.00
2018-09-22T10:39:48.233Z,43.80
2018-09-22T10:40:52.680Z,43.70
2018-09-22T10:41:56.797Z,43.10
2018-09-22T10:43:01.064Z,42.90
2018-09-22T10:44:05.252Z,42.70
2018-09-22T10:45:09.530Z,42.50
2018-09-22T10:46:13.924Z,42.40
2018-09-22T10:47:18.088Z,42.10
2018-09-22T10:48:22.224Z,42.00
2018-09-22T10:49:26.337Z,41.70
2018-09-22T10:50:30.682Z,41.80
2018-09-22T10:51:35.123Z,41.60
2018-09-22T10:52:39.540Z,41.80
2018-09-22T10:53:51.666Z,41.70
2018-09-22T10:54:56.313Z,41.70
2018-09-22T10:56:00.477Z,41.70
2018-09-22T10:57:04.539Z,41.30
2018-09-22T10:58:08.684Z,41.30
2018-09-22T10:59:12.871Z,41.20
2018-09-22T11:00:17.250Z,41.40
2018-09-22T11:01:21.717Z,41.30
2018-09-22T11:02:26.491Z,41.10
2018-09-22T11:03:31.045Z,41.00
2018-09-22T11:04:35.113Z,41.10
2018-09-22T11:05:39.720Z,40.80
2018-09-22T11:06:44.037Z,41.30
2018-09-22T11:07:48.235Z,41.10
2018-09-22T11:08:52.533Z,40.80
2018-09-22T11:09:56.874Z,40.70
2018-09-22T11:11:01.038Z,40.40
2018-09-22T11:12:05.306Z,40.40
2018-09-22T11:13:09.683Z,40.70
2018-09-22T11:14:14.190Z,40.60
2018-09-22T11:15:18.494Z,40.50
2018-09-22T11:16:22.759Z,40.40
2018-09-22T11:17:27.009Z,39.90
2018-09-22T11:18:31.312Z,39.70
2018-09-22T11:19:35.489Z,39.40
2018-09-22T11:20:39.696Z,39.60
2018-09-22T11:21:43.958Z,39.80
2018-09-22T11:22:48.058Z,40.10
2018-09-22T11:23:52.569Z,40.20
2018-09-22T11:24:57.244Z,40.50
2018-09-22T11:26:01.287Z,40.60
2018-09-22T11:27:05.492Z,40.20
2018-09-22T11:28:09.660Z,39.90
2018-09-22T11:29:13.745Z,40.00
2018-09-22T11:30:18.679Z,39.80
2018-09-22T11:31:23.222Z,39.70
2018-09-22T11:32:27.420Z,39.50
2018-09-22T11:33:31.697Z,39.10
2018-09-22T11:34:36.024Z,39.00
2018-09-22T11:35:40.348Z,39.00
2018-09-22T11:36:44.640Z,39.00
2018-09-22T11:37:49.226Z,39.30
2018-09-22T11:38:53.395Z,39.50
2018-09-22T11:39:57.500Z,39.70
2018-09-22T11:41:01.664Z,39.70
2018-09-22T11:42:05.806Z,39.60
2018-09-22T11:43:09.995Z,39.60
2018-09-22T11:44:14.121Z,39.60
2018-09-22T11:45:18.224Z,39.50
2018-09-22T11:46:22.554Z,39.60
2018-09-22T11:47:26.755Z,39.50
2018-09-22T11:48:30.930Z,39.60
2018-09-22T11:49:35.503Z,39.80
2018-09-22T11:50:39.640Z,39.70
2018-09-22T11:51:43.804Z,39.50
2018-09-22T11:52:48.408Z,39.40
2018-09-22T11:53:52.537Z,39.40
2018-09-22T11:54:56.726Z,39.00
2018-09-22T11:56:01.081Z,38.20
2018-09-22T11:57:05.749Z,37.90
2018-09-22T11:58:10.021Z,37.70
2018-09-22T11:59:14.172Z,37.50
2018-09-22T12:00:19.027Z,37.00
2018-09-22T12:01:23.193Z,37.20
2018-09-22T12:02:27.271Z,36.90
2018-09-22T12:03:31.446Z,36.40
2018-09-22T12:04:35.638Z,36.30
2018-09-22T12:05:39.690Z,36.40
2018-09-22T12:06:44.048Z,35.90
2018-09-22T12:07:48.160Z,35.20
2018-09-22T12:08:52.401Z,34.80
2018-09-22T12:09:56.584Z,34.50
2018-09-22T12:11:00.868Z,34.70
2018-09-22T12:12:05.036Z,34.20
2018-09-22T12:13:09.351Z,34.00
2018-09-22T12:14:13.737Z,34.60
2018-09-22T12:15:18.280Z,33.40
2018-09-22T12:16:22.511Z,33.60
2018-09-22T12:17:26.545Z,33.50
2018-09-22T12:18:30.667Z,33.30
2018-09-22T12:19:34.907Z,33.40
2018-09-22T12:20:39.116Z,33.30
2018-09-22T12:21:43.430Z,33.60
2018-09-22T12:22:47.583Z,33.60
2018-09-22T12:23:51.695Z,33.50
2018-09-22T12:24:55.948Z,32.70
2018-09-22T12:26:00.070Z,33.60
2018-09-22T12:27:04.172Z,33.50
2018-09-22T12:28:08.344Z,32.90
2018-09-22T12:29:12.524Z,32.90
2018-09-22T12:30:16.796Z,31.90
2018-09-22T12:31:20.943Z,32.00
2018-09-22T12:32:25.706Z,31.80
2018-09-22T12:33:30.497Z,32.10
2018-09-22T12:34:35.659Z,32.20
2018-09-22T12:35:40.004Z,32.20
2018-09-22T12:36:44.163Z,32.00
2018-09-22T12:37:48.331Z,31.90
2018-09-22T12:38:52.624Z,31.80
2018-09-22T12:39:56.924Z,32.00
2018-09-22T12:41:01.035Z,32.00
2018-09-22T12:42:05.451Z,31.30
2018-09-22T12:43:09.486Z,32.00
2018-09-22T12:44:13.671Z,31.60
2018-09-22T12:45:17.974Z,31.40
2018-09-22T12:46:22.131Z,31.20
2018-09-22T12:47:26.152Z,31.10
2018-09-22T12:48:30.693Z,31.20
2018-09-22T12:49:34.826Z,31.10
2018-09-22T12:50:38.922Z,30.80
2018-09-22T12:51:43.028Z,30.90
2018-09-22T12:52:47.161Z,30.60
2018-09-22T12:53:51.297Z,30.20
2018-09-22T12:54:55.577Z,30.20
2018-09-22T12:55:59.705Z,30.20
2018-09-22T12:57:03.905Z,29.70
2018-09-22T12:58:08.372Z,29.80
2018-09-22T12:59:12.436Z,29.80
2018-09-22T13:00:16.574Z,29.90
2018-09-22T13:01:20.759Z,29.20
2018-09-22T13:02:24.873Z,29.10
2018-09-22T13:03:29.071Z,29.20
2018-09-22T13:04:33.358Z,29.10
2018-09-22T13:05:37.781Z,28.90
2018-09-22T13:06:42.078Z,28.70
2018-09-22T13:07:46.349Z,28.70
2018-09-22T13:08:50.863Z,28.40
2018-09-22T13:09:55.035Z,27.70
2018-09-22T13:10:59.342Z,28.00
2018-09-22T13:12:03.504Z,27.90
2018-09-22T13:13:08.011Z,27.50
2018-09-22T13:14:12.213Z,27.60
2018-09-22T13:15:16.248Z,27.60
2018-09-22T13:16:20.355Z,27.50
2018-09-22T13:17:24.654Z,27.30
2018-09-22T13:18:28.854Z,27.40
2018-09-22T13:19:33.137Z,27.40
2018-09-22T13:20:37.201Z,27.60
2018-09-22T13:21:41.349Z,27.70
2018-09-22T13:22:45.948Z,28.30
2018-09-22T13:23:50.089Z,27.80
2018-09-22T13:24:54.174Z,27.80
2018-09-22T13:25:58.503Z,27.80
2018-09-22T13:27:02.918Z,27.80
2018-09-22T13:28:07.476Z,27.70
2018-09-22T13:29:11.800Z,27.50
2018-09-22T13:30:15.915Z,27.20
2018-09-22T13:31:20.481Z,27.30
2018-09-22T13:32:24.542Z,27.40
2018-09-22T13:33:29.409Z,27.50
2018-09-22T13:34:33.554Z,27.60
2018-09-22T13:35:38.082Z,27.80
2018-09-22T13:36:42.292Z,28.00
2018-09-22T13:37:46.736Z,28.00
2018-09-22T13:38:51.207Z,28.00
2018-09-22T13:39:55.324Z,27.80
2018-09-22T13:40:59.411Z,27.60
2018-09-22T13:42:03.894Z,27.50
2018-09-22T13:43:08.044Z,27.40
2018-09-22T13:44:12.140Z,27.10
2018-09-22T13:45:16.173Z,27.00
2018-09-22T13:46:20.687Z,26.70
2018-09-22T13:47:25.078Z,26.30
2018-09-22T13:48:29.204Z,26.20